Meteo Giornale » Osservazioni meteo Stati Uniti (USA) » Visalia
ore: 17:56 - Osservazioni Meteo Visalia
Lat. 36° 19' N Lon. 119° 24' W Alt. 89 metri s.l.m.
33 °C
Sereno
Temp. 24 Ore
15 °C
33 °C
Nord/Nord-Est
11.1 Km/h
Dew point 9 °C
Umidità 22 %
Visibilità 10 Km
Il sole sorge alle ore 06:28
Il sole tramonta alle ore 19:27
| Data e Ora | Cielo e Fenomeni | T °C | DP °C | Um. % | Pres. hPa | Vis. km | Vento km/h | |
|---|---|---|---|---|---|---|---|---|
| Oggi h: 17:56 | Sereno | 33 | 9 | 22 | 1008 | 10 | N/NE 11.1 | |
| Oggi h: 16:56 | Sereno | 33 | 9 | 22 | 1009 | 10 | N 5.5 | |
| Oggi h: 15:56 | Sereno | 33 | 9 | 22 | 1009 | 10 | N 0 | |
| Oggi h: 13:56 | Sereno | 32 | 9 | 24 | 1011 | 10 | S/SO 11.1 | |
| Oggi h: 12:56 | Sereno | 30 | 10 | 28 | 1011 | 10 | O/SO 9.3 | |
| Oggi h: 11:56 | Sereno | 28 | 12 | 37 | 1012 | 10 | N 0 | |
| Oggi h: 10:56 | Sereno | 26 | 12 | 41 | 1012 | 10 | N 5.5 | |
| Oggi h: 09:56 | Sereno | 23 | 12 | 49 | 1012 | 10 | S/SO 9.3 | |
| Oggi h: 08:56 | Sereno | 21 | 11 | 52 | 1012 | 10 | S 7.4 | |
| Oggi h: 07:56 | Sereno | 17 | 12 | 72 | 1012 | 10 | SE 7.4 | |
| Oggi h: 06:56 | Sereno | 16 | 12 | 77 | 1011 | 10 | SE 9.3 | |
| Oggi h: 05:56 | Sereno | 15 | 11 | 76 | 1011 | 10 | N 5.5 | |
| Oggi h: 04:56 | Sereno | 17 | 11 | 67 | 1011 | 10 | SO 7.4 | |
| Oggi h: 03:56 | Sereno | 18 | 11 | 63 | 1010 | 10 | N 5.5 | |
| Oggi h: 02:56 | Sereno | 18 | 11 | 63 | 1010 | 10 | N 0 | |
| Oggi h: 01:56 | Sereno | 19 | 11 | 59 | 1010 | 10 | N 0 | |
| Oggi h: 00:56 | Sereno | 21 | 10 | 49 | 1010 | 10 | NO 11.1 | |
| Ieri h: 23:56 | Sereno | 22 | 11 | 49 | 1010 | 10 | O/NO 14.8 | |
| Ieri h: 22:56 | Sereno | 25 | 11 | 41 | 1010 | 10 | NO 13 | |
| Ieri h: 21:56 | Sereno | 26 | 12 | 41 | 1010 | 10 | NO 13 | |
| Ieri h: 20:56 | Sereno | 27 | 13 | 42 | 1009 | 10 | O/NO 9.3 | |
| Ieri h: 19:56 | Sereno | 29 | 11 | 32 | 1008 | 10 | N 0 | |
| Ieri h: 18:56 | Sereno | 33 | 9 | 22 | 1008 | 10 | N 9.3 | |



